Latest Weather Observations for Terrey Hills

IDN60901

Issued at 7:21 pm EDT Tuesday 20 November 2018 (issued every 10 minutes, with the page automatically refreshed every 10 minutes)

About weather observations | Map of Sydney area stations | Latest observations for Sydney area | Other Formats
Station Details ID: 066059 Name: TERREY HILLS AWS Lat: -33.69 Lon: 151.23 Height: 199.0 m
Data from the previous 72 hours. | See also: Recent months at Terrey Hills
Date/Time
EDT
Temp
°C
App
Temp
°C
Dew
Point
°C
Rel
Hum
%
Delta-T
°C
Wind Press
QNH
hPa
Press
MSL
hPa
Rain since
9am
mm
Dir  Spd
km/h
Gust
km/h
Spd
kts
Gust
kts
20/07:00pm 19.9 19.9 18.2 90 1.1 NE 15 28 8 15 - - 0.0
20/06:30pm 20.1 19.6 17.9 87 1.4 NE 17 30 9 16 - - 0.0
20/06:00pm 20.1 19.6 17.9 87 1.4 NE 17 33 9 18 - - 0.0
20/05:30pm 20.2 19.6 17.6 85 1.6 NE 17 30 9 16 - - 0.0
20/05:00pm 20.6 20.5 17.0 80 2.2 NE 13 24 7 13 - - 0.0
20/04:30pm 21.6 19.4 15.0 66 3.9 NE 20 41 11 22 - - 0.0
20/04:00pm 21.8 19.6 14.4 63 4.4 NE 19 35 10 19 - - 0.0
20/03:30pm 22.8 20.8 13.8 57 5.3 ENE 17 37 9 20 - - 0.0
20/03:00pm 22.6 20.7 14.2 59 5.0 NE 17 32 9 17 - - 0.0
20/02:30pm 22.9 20.2 13.4 55 5.5 ENE 20 33 11 18 - - 0.0
20/02:00pm 23.4 22.0 13.3 53 5.9 NE 13 26 7 14 - - 0.0
20/01:30pm 23.3 21.7 14.0 56 5.5 NE 15 30 8 16 - - 0.0
20/01:00pm 23.2 21.6 12.8 52 6.0 NE 13 22 7 12 - - 0.0
20/12:30pm 23.2 21.5 13.7 55 5.6 ENE 15 26 8 14 - - 0.0
20/12:00pm 22.8 21.9 14.9 61 4.7 ENE 13 24 7 13 - - 0.0
20/11:30am 22.5 21.6 13.8 58 5.1 NE 11 20 6 11 - - 0.0
20/11:00am 22.4 21.9 14.8 62 4.5 NE 11 22 6 12 - - 0.0
20/10:30am 21.6 22.2 15.9 70 3.5 NNE 7 15 4 8 - - 0.0
20/10:00am 19.4 20.3 16.1 81 2.0 NE 6 9 3 5 - - 0.0
20/09:30am 18.4 19.2 15.8 85 1.6 NNE 6 11 3 6 - - 0.0
20/09:00am 18.8 19.1 15.1 79 2.2 N 7 13 4 7 - - 0.0
20/08:30am 18.9 19.6 15.6 81 2.0 N 6 9 3 5 - - 0.0
20/08:00am 18.3 18.4 15.6 84 1.6 N 9 17 5 9 - - 0.0
20/07:30am 17.9 18.5 15.7 87 1.3 NNE 7 15 4 8 - - 0.0
20/07:00am 17.4 17.9 15.6 89 1.1 N 7 11 4 6 - - 0.0
20/06:30am 16.8 16.4 15.3 91 0.9 N 11 17 6 9 - - 0.0
20/06:00am 16.1 16.1 15.1 94 0.6 N 9 13 5 7 - - 0.0
20/05:30am 16.1 16.1 15.1 94 0.6 NNE 9 13 5 7 - - 0.0
20/05:00am 16.1 16.4 15.1 94 0.6 NNE 7 13 4 7 - - 0.0
20/04:30am 16.0 16.4 15.2 95 0.5 NNE 7 11 4 6 - - 0.0
20/04:00am 16.0 16.6 15.2 95 0.5 NNE 6 7 3 4 - - 0.0
20/03:30am 16.0 16.5 15.0 94 0.6 NE 6 11 3 6 - - 0.0
20/03:00am 16.2 16.6 14.7 91 0.9 NE 6 11 3 6 - - 0.0
20/02:30am 16.2 16.5 14.6 90 0.9 NNE 6 9 3 5 - - 0.0
20/02:00am 16.7 16.5 14.7 88 1.2 N 9 13 5 7 - - 0.0
20/01:30am 16.6 16.4 14.8 89 1.0 N 9 13 5 7 - - 0.0
20/01:00am 16.8 16.7 15.0 89 1.1 N 9 17 5 9 - - 0.0
20/12:30am 16.7 17.1 15.2 91 0.9 NNE 7 11 4 6 - - 0.0
20/12:00am 16.6 17.0 15.3 92 0.8 NNE 7 13 4 7 - - 0.0
 
Date/Time
EDT
Temp
°C
App
Temp
°C
Dew
Point
°C
Rel
Hum
%
Delta-T
°C
Wind Press
QNH
hPa
Press
MSL
hPa
Rain since
9am
mm
Dir  Spd
km/h
Gust
km/h
Spd
kts
Gust
kts
19/11:30pm 16.4 17.4 16.4 100 0.0 NE 6 9 3 5 - - 0.0
19/11:00pm 16.8 17.8 16.8 100 0.0 NE 7 13 4 7 - - 0.0
19/10:30pm 16.7 17.1 16.4 98 0.2 ENE 9 13 5 7 - - 0.0
19/10:00pm 16.9 16.9 16.3 96 0.4 ENE 11 19 6 10 - - 0.0
19/09:30pm 16.7 17.0 16.1 96 0.4 ENE 9 15 5 8 - - 0.0
19/09:00pm 16.7 17.2 15.6 93 0.6 ENE 7 13 4 7 - - 0.0
19/08:30pm 16.7 17.1 15.4 92 0.8 ENE 7 15 4 8 - - 0.0
19/08:00pm 17.0 17.0 15.3 90 1.0 ENE 9 20 5 11 - - 0.0
19/07:30pm 17.3 16.8 14.9 86 1.4 ENE 11 24 6 13 - - 0.0
19/07:00pm 17.8 17.6 14.7 82 1.8 ENE 9 19 5 10 - - 0.0
19/06:30pm 18.4 17.1 14.9 80 2.1 ENE 15 26 8 14 - - 0.0
19/06:00pm 18.6 16.3 14.7 78 2.3 ENE 20 33 11 18 - - 0.0
19/05:30pm 19.4 18.7 15.5 78 2.3 ENE 13 24 7 13 - - 0.0
19/05:00pm 19.6 18.5 15.3 76 2.6 ENE 15 32 8 17 - - 0.0
19/04:30pm 19.8 18.3 15.2 75 2.7 E 17 28 9 15 - - 0.0
19/04:00pm 19.1 17.4 14.8 76 2.5 ENE 17 30 9 16 - - 0.0
19/03:30pm 20.3 18.3 14.9 71 3.2 E 19 26 10 14 - - 0.0
19/03:00pm 19.7 17.6 15.1 75 2.7 E 20 32 11 17 - - 0.0
19/02:30pm 20.1 18.9 15.1 73 3.0 E 15 22 8 12 - - 0.0
19/02:00pm 20.0 17.8 15.0 73 3.0 E 20 30 11 16 - - 0.0
19/01:30pm 19.8 18.5 14.8 73 2.9 E 15 22 8 12 - - 0.0
19/01:00pm 19.6 18.5 14.2 71 3.1 E 13 24 7 13 - - 0.0
19/12:30pm 19.2 17.6 14.0 72 3.0 E 15 24 8 13 - - 0.0
19/12:00pm 19.6 18.5 14.4 72 3.0 E 13 26 7 14 - - 0.0
19/11:30am 19.4 18.2 14.0 71 3.1 E 13 19 7 10 - - 0.0
19/11:00am 18.9 18.3 13.5 71 3.1 E 9 17 5 9 - - 0.0
19/10:30am 19.2 18.3 13.6 70 3.2 E 11 17 6 9 - - 0.0
19/10:00am 19.3 18.6 14.3 73 2.9 E 11 17 6 9 - - 0.0
19/09:30am 18.6 19.1 14.9 79 2.2 SE 6 9 3 5 - - 0.0
19/09:00am 17.8 18.6 14.9 83 1.7 SE 4 9 2 5 - - 0.0
19/08:30am 16.8 18.2 15.5 92 0.8 W 2 4 1 2 - - 0.0
19/08:00am 15.8 16.6 14.8 94 0.6 W 4 6 2 3 - - 0.0
19/07:30am 14.2 14.3 14.0 99 0.1 W 6 7 3 4 - - 0.0
19/07:00am 13.6 13.6 13.6 100 0.0 WNW 6 7 3 4 - - 0.0
19/06:30am 13.4 14.1 13.4 100 0.0 SW 2 4 1 2 - - 0.0
19/06:00am 12.1 12.8 12.1 100 0.0 CALM 0 0 0 0 - - 0.0
19/05:30am 12.8 13.6 12.6 99 0.1 CALM 0 0 0 0 - - 0.0
19/05:00am 13.2 14.0 12.7 97 0.3 CALM 0 0 0 0 - - 0.0
19/04:30am 13.7 14.3 13.1 96 0.3 E 2 4 1 2 - - 0.0
19/04:00am 13.2 14.1 12.9 98 0.2 CALM 0 0 0 0 - - 0.0
19/03:30am 13.2 14.1 12.9 98 0.2 CALM 0 0 0 0 - - 0.0
19/03:00am 13.4 14.3 12.9 97 0.3 CALM 0 2 0 1 - - 0.0
19/02:30am 13.5 14.4 12.9 96 0.3 CALM 0 2 0 1 - - 0.0
19/02:00am 13.9 14.1 13.0 94 0.5 NE 4 7 2 4 - - 0.0
19/01:30am 14.3 14.5 13.2 93 0.6 NE 4 9 2 5 - - 0.0
19/01:00am 14.2 14.4 12.9 92 0.7 NNE 4 7 2 4 - - 0.0
19/12:30am 14.3 14.1 13.0 92 0.7 ENE 6 9 3 5 - - 0.0
19/12:00am 14.3 14.5 12.9 91 0.8 ENE 4 7 2 4 - - 0.0
 
Date/Time
EDT
Temp
°C
App
Temp
°C
Dew
Point
°C
Rel
Hum
%
Delta-T
°C
Wind Press
QNH
hPa
Press
MSL
hPa
Rain since
9am
mm
Dir  Spd
km/h
Gust
km/h
Spd
kts
Gust
kts
18/11:30pm 14.5 13.7 11.8 84 1.5 E 7 9 4 5 - - 0.0
18/11:00pm 15.0 14.1 11.4 79 1.9 E 7 9 4 5 - - 0.0
18/10:30pm 15.1 14.1 11.1 77 2.2 E 7 9 4 5 - - 0.0
18/10:00pm 15.2 13.8 11.0 76 2.3 E 9 13 5 7 - - 0.0
18/09:30pm 15.4 14.1 11.4 77 2.2 E 9 13 5 7 - - 0.0
18/09:00pm 15.3 14.1 11.5 78 2.1 E 9 13 5 7 - - 0.0
18/08:30pm 15.4 14.3 12.0 80 1.9 E 9 15 5 8 - - 0.0
18/08:00pm 15.6 14.8 11.8 78 2.1 E 7 15 4 8 - - 0.0
18/07:30pm 16.3 15.0 11.2 72 2.8 E 9 15 5 8 - - 0.0
18/07:00pm 16.9 15.1 11.0 68 3.2 E 11 22 6 12 - - 0.0
18/06:30pm 17.7 15.4 10.6 63 3.8 E 13 24 7 13 - - 0.0
18/06:00pm 17.4 15.1 10.5 64 3.7 E 13 24 7 13 - - 0.0
18/05:30pm 17.9 15.6 11.7 67 3.4 E 15 22 8 12 - - 0.0
18/05:00pm 17.8 15.0 11.4 66 3.5 E 17 26 9 14 - - 0.0
18/04:30pm 17.9 15.2 11.7 67 3.4 ESE 17 24 9 13 - - 0.0
18/04:00pm 18.4 16.2 12.2 67 3.5 E 15 24 8 13 - - 0.0
18/03:30pm 18.9 17.3 11.7 63 4.0 E 11 20 6 11 - - 0.0
18/03:00pm 18.9 17.1 12.2 65 3.8 ESE 13 24 7 13 - - 0.0
18/02:30pm 18.8 15.7 11.6 63 4.0 ESE 19 35 10 19 - - 0.0
18/02:00pm 19.1 15.7 11.4 61 4.3 ESE 20 32 11 17 - - 0.0
18/01:30pm 20.1 17.5 12.1 60 4.5 ESE 17 24 9 13 - - 0.0
18/01:00pm 19.5 16.0 10.2 55 5.0 E 19 30 10 16 - - 0.0
18/12:30pm 19.5 16.7 11.3 59 4.5 ESE 17 28 9 15 - - 0.0
18/12:00pm 19.9 17.5 12.7 63 4.1 ESE 17 28 9 15 - - 0.0
18/11:30am 19.9 17.5 12.7 63 4.1 E 17 28 9 15 - - 0.0
18/11:00am 20.4 19.6 15.0 71 3.2 E 13 24 7 13 - - 0.0
18/10:30am 19.9 18.8 14.3 70 3.3 ESE 13 22 7 12 - - 0.0
18/10:00am 18.0 16.0 12.7 71 3.0 SE 15 22 8 12 - - 0.0
18/09:30am 19.2 17.7 14.2 73 2.9 ESE 15 22 8 12 - - 0.0
18/09:00am 17.5 16.9 14.6 83 1.7 SE 11 20 6 11 - - 15.4
18/08:30am 17.0 16.7 14.5 85 1.4 SE 9 17 5 9 - - 15.4
18/08:00am 17.7 17.6 15.9 89 1.1 SE 11 17 6 9 - - 15.4
18/07:30am 15.9 15.9 15.1 95 0.5 SE 9 17 5 9 - - 15.4
18/07:00am 16.0 16.5 15.5 97 0.3 SSE 7 15 4 8 - - 15.4
18/06:30am 14.8 15.0 14.8 100 0.0 SE 7 15 4 8 - - 15.4
18/06:00am 14.5 14.6 14.5 100 0.0 SE 7 11 4 6 - - 15.4
18/05:30am 14.4 14.5 14.4 100 0.0 SSE 7 15 4 8 - - 15.4
18/05:00am 14.6 14.0 14.6 100 0.0 ESE 11 24 6 13 - - 14.2
18/04:30am 14.2 14.4 14.2 100 0.0 S 6 11 3 6 - - 9.6
18/04:00am 14.6 14.9 14.6 100 0.0 SSE 6 17 3 9 - - 4.0
18/03:30am 14.1 15.0 14.1 100 0.0 SE 2 6 1 3 - - 3.8
18/03:00am 13.9 14.0 13.9 100 0.0 ESE 6 9 3 5 - - 2.6
18/02:30am 13.6 14.4 13.6 100 0.0 SW 2 6 1 3 - - 1.2
18/02:00am 14.1 14.6 14.1 100 0.0 SE 4 7 2 4 - - 1.2
18/01:30am 14.7 13.2 14.2 97 0.3 ESE 15 26 8 14 - - 0.4
18/01:00am 16.0 16.5 15.5 97 0.3 SSE 7 15 4 8 - - 0.2
18/12:30am 16.0 16.5 15.5 97 0.3 SSE 7 15 4 8 - - 0.2
18/12:00am 16.0 16.5 15.5 97 0.3 SSE 7 15 4 8 - - 0.2
 
Date/Time
EDT
Temp
°C
App
Temp
°C
Dew
Point
°C
Rel
Hum
%
Delta-T
°C
Wind Press
QNH
hPa
Press
MSL
hPa
Rain since
9am
mm
Dir  Spd
km/h
Gust
km/h
Spd
kts
Gust
kts
17/11:30pm 15.5 16.0 14.9 96 0.3 SSE 6 13 3 7 - - 0.2
17/11:00pm 15.7 15.9 14.6 93 0.6 SSE 7 15 4 8 - - 0.2
17/10:30pm 16.0 15.3 14.4 90 0.9 SE 11 22 6 12 - - 0.2
17/10:00pm 16.1 15.6 14.8 92 0.8 SE 11 20 6 11 - - 0.2
17/09:30pm 16.5 15.5 14.5 88 1.2 SE 13 24 7 13 - - 0.2
17/09:00pm 16.6 15.7 14.8 89 1.0 SE 13 20 7 11 - - 0.2
17/08:30pm 16.5 16.2 14.5 88 1.2 SSE 9 15 5 8 - - 0.2
17/08:00pm 16.7 16.5 15.6 93 0.6 SSE 11 22 6 12 - - 0.2
17/07:30pm 16.6 16.5 16.0 96 0.4 SSE 11 24 6 13 - - 0.2

Latest Capital City Observations: Canberra | Sydney | Melbourne | Brisbane | Adelaide | Perth | Hobart | Darwin

Other Formats:

Comma delimited format used in spreadsheet applications
http://www.bom.gov.au/fwo/IDN60901/IDN60901.94759.axf

JavaScript Object Notation format (JSON) in row-major order
http://www.bom.gov.au/fwo/IDN60901/IDN60901.94759.json